createdAt,value
2022-12-06T00:00:08.425Z,1012.53
2022-12-06T00:00:42.920Z,1012.53
2022-12-06T00:01:15.079Z,1012.53
2022-12-06T00:01:47.000Z,1012.53
2022-12-06T00:02:18.398Z,1012.43
2022-12-06T00:02:51.767Z,1012.43
2022-12-06T00:03:23.161Z,1012.53
2022-12-06T00:03:45.931Z,1012.53
2022-12-06T00:04:08.513Z,1012.53
2022-12-06T00:04:43.829Z,1012.53
2022-12-06T00:05:14.883Z,1012.43
2022-12-06T00:05:46.926Z,1012.43
2022-12-06T00:06:18.161Z,1012.53
2022-12-06T00:06:53.476Z,1012.33
2022-12-06T00:07:24.090Z,1012.33
2022-12-06T00:07:46.581Z,1012.33
2022-12-06T00:08:09.482Z,1012.33
2022-12-06T00:08:42.837Z,1012.33
2022-12-06T00:09:15.016Z,1012.43
2022-12-06T00:09:46.811Z,1012.43
2022-12-06T00:10:18.978Z,1012.43
2022-12-06T00:10:51.028Z,1012.43
2022-12-06T00:11:22.947Z,1012.43
2022-12-06T00:11:45.845Z,1012.43
2022-12-06T00:12:08.416Z,1012.43
2022-12-06T00:12:44.061Z,1012.43
2022-12-06T00:13:15.291Z,1012.53
2022-12-06T00:13:47.536Z,1012.53
2022-12-06T00:14:18.164Z,1012.33
2022-12-06T00:14:51.873Z,1012.33
2022-12-06T00:15:23.335Z,1012.43
2022-12-06T00:15:45.814Z,1012.22
2022-12-06T00:16:08.408Z,1012.22
2022-12-06T00:16:43.162Z,1012.22
2022-12-06T00:17:15.742Z,1012.53
2022-12-06T00:17:46.850Z,1012.53
2022-12-06T00:18:17.877Z,1012.22
2022-12-06T00:18:51.204Z,1012.22
2022-12-06T00:19:23.139Z,1012.43
2022-12-06T00:19:45.953Z,1012.22
2022-12-06T00:20:08.265Z,1012.22
2022-12-06T00:20:42.887Z,1012.22
2022-12-06T00:21:14.881Z,1012.53
2022-12-06T00:21:47.019Z,1012.53
2022-12-06T00:22:17.893Z,1012.43
2022-12-06T00:22:50.936Z,1012.43
2022-12-06T00:23:27.568Z,1012.53
2022-12-06T00:23:46.195Z,1012.33
2022-12-06T00:24:09.541Z,1012.33
2022-12-06T00:24:42.967Z,1012.33
2022-12-06T00:25:15.091Z,1012.33
2022-12-06T00:25:46.843Z,1012.33
2022-12-06T00:26:18.907Z,1012.33
2022-12-06T00:26:50.884Z,1012.33
2022-12-06T00:27:23.261Z,1012.53
2022-12-06T00:27:45.935Z,1012.53
2022-12-06T00:28:08.696Z,1012.53
2022-12-06T00:28:43.137Z,1012.53
2022-12-06T00:29:15.951Z,1012.22
2022-12-06T00:29:47.265Z,1012.22
2022-12-06T00:30:18.542Z,1012.43
2022-12-06T00:30:51.911Z,1012.43
2022-12-06T00:31:22.901Z,1012.33
2022-12-06T00:31:45.412Z,1012.33
2022-12-06T00:32:08.369Z,1012.33
2022-12-06T00:32:43.052Z,1012.33
2022-12-06T00:33:15.768Z,1012.43
2022-12-06T00:33:47.288Z,1012.43
2022-12-06T00:34:18.382Z,1012.33
2022-12-06T00:34:51.210Z,1012.33
2022-12-06T00:35:23.139Z,1012.22
2022-12-06T00:35:45.857Z,1012.53
2022-12-06T00:36:08.270Z,1012.53
2022-12-06T00:36:43.607Z,1012.53
2022-12-06T00:37:15.143Z,1012.12
2022-12-06T00:37:48.868Z,1012.33
2022-12-06T00:38:18.352Z,1012.33
2022-12-06T00:38:50.943Z,1012.33
2022-12-06T00:39:23.029Z,1012.33
2022-12-06T00:39:45.636Z,1012.33
2022-12-06T00:40:08.474Z,1012.33
2022-12-06T00:40:43.010Z,1012.33
2022-12-06T00:41:14.788Z,1012.22
2022-12-06T00:41:46.866Z,1012.22
2022-12-06T00:42:18.571Z,1012.22
2022-12-06T00:42:50.784Z,1012.22
2022-12-06T00:43:23.412Z,1012.33
2022-12-06T00:43:46.061Z,1012.22
2022-12-06T00:44:08.756Z,1012.22
2022-12-06T00:44:43.432Z,1012.22
2022-12-06T00:45:14.866Z,1012.43
2022-12-06T00:45:47.055Z,1012.43
2022-12-06T00:46:18.047Z,1012.33
2022-12-06T00:46:50.910Z,1012.33
2022-12-06T00:47:22.791Z,1012.33
2022-12-06T00:47:45.611Z,1012.33
2022-12-06T00:48:08.888Z,1012.33
2022-12-06T00:48:43.352Z,1012.33
2022-12-06T00:49:15.269Z,1012.33
2022-12-06T00:49:47.221Z,1012.33
2022-12-06T00:50:20.079Z,1012.43
2022-12-06T00:50:51.339Z,1012.43
2022-12-06T00:51:23.577Z,1012.02
2022-12-06T00:51:45.787Z,1012.33
2022-12-06T00:52:08.268Z,1012.33
2022-12-06T00:52:43.849Z,1012.33
2022-12-06T00:53:15.631Z,1012.33
2022-12-06T00:53:47.280Z,1012.33
2022-12-06T00:54:17.815Z,1012.33
2022-12-06T00:54:50.782Z,1012.33
2022-12-06T00:55:23.447Z,1012.43
2022-12-06T00:55:46.371Z,1012.33
2022-12-06T00:56:09.323Z,1012.33
2022-12-06T00:56:43.046Z,1012.33
2022-12-06T00:57:15.321Z,1012.33
2022-12-06T00:57:47.074Z,1012.33
2022-12-06T00:58:18.601Z,1012.53
2022-12-06T00:58:52.147Z,1012.53
2022-12-06T00:59:23.123Z,1012.43
2022-12-06T00:59:45.863Z,1012.33
2022-12-06T01:00:08.607Z,1012.33
2022-12-06T01:00:45.948Z,1012.33
2022-12-06T01:01:15.397Z,1012.33
2022-12-06T01:01:47.333Z,1012.33
2022-12-06T01:02:18.271Z,1012.22
2022-12-06T01:02:51.158Z,1012.22
2022-12-06T01:03:23.353Z,1012.33
2022-12-06T01:03:46.223Z,1012.33
2022-12-06T01:04:08.647Z,1012.33
2022-12-06T01:04:43.358Z,1012.33
2022-12-06T01:05:15.458Z,1012.22
2022-12-06T01:05:46.969Z,1012.22
2022-12-06T01:06:18.171Z,1012.53
2022-12-06T01:06:58.949Z,1012.22
2022-12-06T01:07:22.192Z,1012.22
2022-12-06T01:07:44.978Z,1012.33
2022-12-06T01:08:07.455Z,1012.33
2022-12-06T01:08:43.217Z,1012.33
2022-12-06T01:09:14.887Z,1012.33
2022-12-06T01:09:47.007Z,1012.33
2022-12-06T01:10:17.782Z,1012.22
2022-12-06T01:10:50.981Z,1012.22
2022-12-06T01:11:22.885Z,1012.22
2022-12-06T01:11:45.590Z,1012.43
2022-12-06T01:12:08.038Z,1012.43
2022-12-06T01:12:43.152Z,1012.43
2022-12-06T01:13:15.246Z,1012.12
2022-12-06T01:13:47.343Z,1012.12
2022-12-06T01:14:19.059Z,1012.33
2022-12-06T01:14:51.334Z,1012.33
2022-12-06T01:15:23.879Z,1012.43
2022-12-06T01:15:46.692Z,1012.33
2022-12-06T01:16:08.918Z,1012.33
2022-12-06T01:16:43.215Z,1012.33
2022-12-06T01:17:15.383Z,1012.53
2022-12-06T01:17:47.743Z,1012.53
2022-12-06T01:18:18.430Z,1012.22
2022-12-06T01:18:50.933Z,1012.22
2022-12-06T01:19:22.792Z,1012.33
2022-12-06T01:19:45.527Z,1012.33
2022-12-06T01:20:08.165Z,1012.33
2022-12-06T01:20:43.504Z,1012.33
2022-12-06T01:21:15.404Z,1012.22
2022-12-06T01:21:46.768Z,1012.22
2022-12-06T01:22:17.896Z,1012.33
2022-12-06T01:22:50.784Z,1012.33
2022-12-06T01:23:22.844Z,1012.12
2022-12-06T01:23:45.542Z,1012.22
2022-12-06T01:24:07.859Z,1012.22
2022-12-06T01:24:43.143Z,1012.22
2022-12-06T01:25:14.872Z,1012.22
2022-12-06T01:25:47.137Z,1012.22
2022-12-06T01:26:18.169Z,1012.43
2022-12-06T01:26:51.706Z,1012.43
2022-12-06T01:27:22.952Z,1012.33
2022-12-06T01:27:45.668Z,1012.33
2022-12-06T01:28:08.397Z,1012.33
2022-12-06T01:28:43.023Z,1012.33
2022-12-06T01:29:14.975Z,1012.53
2022-12-06T01:29:46.823Z,1012.53
2022-12-06T01:30:18.297Z,1012.63
2022-12-06T01:30:51.478Z,1012.63
2022-12-06T01:31:23.393Z,1012.53
2022-12-06T01:31:46.002Z,1012.33
2022-12-06T01:32:08.429Z,1012.33
2022-12-06T01:32:43.155Z,1012.33
2022-12-06T01:33:14.888Z,1012.33
2022-12-06T01:33:46.864Z,1012.33
2022-12-06T01:34:17.928Z,1012.12
2022-12-06T01:34:50.864Z,1012.12
2022-12-06T01:35:22.912Z,1012.53
2022-12-06T01:35:45.503Z,1012.33
2022-12-06T01:36:09.250Z,1012.33
2022-12-06T01:36:42.927Z,1012.33
2022-12-06T01:37:15.554Z,1012.43
2022-12-06T01:37:46.922Z,1012.43
2022-12-06T01:38:17.854Z,1012.53
2022-12-06T01:38:51.064Z,1012.53
2022-12-06T01:39:24.808Z,1012.33
2022-12-06T01:39:47.587Z,1012.33
2022-12-06T01:40:10.323Z,1012.33
2022-12-06T01:40:42.990Z,1012.33
2022-12-06T01:41:14.876Z,1012.53
2022-12-06T01:41:47.125Z,1012.53
2022-12-06T01:42:18.068Z,1012.22
2022-12-06T01:42:51.706Z,1012.22
2022-12-06T01:43:23.700Z,1012.33
2022-12-06T01:43:46.474Z,1012.22
2022-12-06T01:44:09.500Z,1012.22
2022-12-06T01:44:43.183Z,1012.22
2022-12-06T01:45:14.891Z,1012.43
2022-12-06T01:45:46.926Z,1012.43
2022-12-06T01:46:18.434Z,1012.33
2022-12-06T01:46:50.779Z,1012.33
2022-12-06T01:47:22.877Z,1012.43
2022-12-06T01:47:45.553Z,1012.22
2022-12-06T01:48:07.794Z,1012.22
2022-12-06T01:48:43.707Z,1012.22
2022-12-06T01:49:15.075Z,1012.22
2022-12-06T01:49:47.424Z,1012.22
2022-12-06T01:50:17.989Z,1012.12
2022-12-06T01:50:51.169Z,1012.12
2022-12-06T01:51:23.211Z,1012.43
2022-12-06T01:51:45.777Z,1012.22
2022-12-06T01:52:08.795Z,1012.22
2022-12-06T01:52:44.559Z,1012.12
2022-12-06T01:53:15.332Z,1012.12
2022-12-06T01:53:46.911Z,1012.12
2022-12-06T01:54:19.232Z,1012.43
2022-12-06T01:54:50.963Z,1012.43
2022-12-06T01:55:23.350Z,1012.33
2022-12-06T01:55:45.835Z,1012.22
2022-12-06T01:56:08.461Z,1012.22
2022-12-06T01:56:43.543Z,1012.22
2022-12-06T01:57:14.896Z,1012.33
2022-12-06T01:57:47.254Z,1012.33
2022-12-06T01:58:18.246Z,1012.33
2022-12-06T01:58:51.960Z,1012.33
2022-12-06T01:59:23.276Z,1012.33
2022-12-06T01:59:45.993Z,1012.22
2022-12-06T02:00:08.418Z,1012.22
2022-12-06T02:00:42.958Z,1012.22
2022-12-06T02:01:15.308Z,1012.22
2022-12-06T02:01:47.514Z,1012.22
2022-12-06T02:02:19.051Z,1012.12
2022-12-06T02:02:51.114Z,1012.12
2022-12-06T02:03:23.077Z,1012.33
2022-12-06T02:03:45.860Z,1012.33
2022-12-06T02:04:44.907Z,1012.33
2022-12-06T02:05:15.374Z,1012.33
2022-12-06T02:05:46.926Z,1012.33
2022-12-06T02:06:17.851Z,1012.22
2022-12-06T02:06:50.939Z,1012.22
2022-12-06T02:07:22.797Z,1012.33
2022-12-06T02:07:47.094Z,1012.43
2022-12-06T02:08:09.474Z,1012.43
2022-12-06T02:08:42.839Z,1012.43
2022-12-06T02:09:14.804Z,1012.12
2022-12-06T02:09:46.846Z,1012.12
2022-12-06T02:10:17.923Z,1012.22
2022-12-06T02:10:50.805Z,1012.22
2022-12-06T02:11:22.837Z,1012.12
2022-12-06T02:11:45.669Z,1012.12
2022-12-06T02:12:08.035Z,1012.12
2022-12-06T02:12:42.856Z,1012.12
2022-12-06T02:13:14.976Z,1012.02
2022-12-06T02:13:47.010Z,1012.02
2022-12-06T02:14:17.859Z,1012.22
2022-12-06T02:14:50.846Z,1012.22
2022-12-06T02:15:22.811Z,1012.02
2022-12-06T02:15:45.766Z,1012.33
2022-12-06T02:16:07.895Z,1012.33
2022-12-06T02:16:42.906Z,1012.33
2022-12-06T02:17:14.903Z,1012.12
2022-12-06T02:17:46.753Z,1012.12
2022-12-06T02:18:17.839Z,1012.12
2022-12-06T02:18:50.856Z,1012.12
2022-12-06T02:19:22.864Z,1012.22
2022-12-06T02:19:45.594Z,1012.12
2022-12-06T02:20:08.119Z,1012.12
2022-12-06T02:20:43.164Z,1012.12
2022-12-06T02:21:14.783Z,1012.12
2022-12-06T02:21:46.880Z,1012.12
2022-12-06T02:22:18.177Z,1012.33
2022-12-06T02:22:50.855Z,1012.33
2022-12-06T02:23:22.898Z,1012.12
2022-12-06T02:23:45.733Z,1012.02
2022-12-06T02:24:07.946Z,1012.02
2022-12-06T02:24:43.033Z,1012.02
2022-12-06T02:25:15.479Z,1012.33
2022-12-06T02:25:46.738Z,1012.33
2022-12-06T02:26:17.819Z,1012.02
2022-12-06T02:26:50.869Z,1012.02
2022-12-06T02:27:22.797Z,1012.22
2022-12-06T02:27:45.686Z,1012.12
2022-12-06T02:28:08.193Z,1012.12
2022-12-06T02:28:42.949Z,1012.12
2022-12-06T02:29:14.866Z,1012.02
2022-12-06T02:29:47.297Z,1012.02
2022-12-06T02:30:18.000Z,1012.12
2022-12-06T02:30:50.957Z,1012.12
2022-12-06T02:31:22.841Z,1012.12
2022-12-06T02:31:45.537Z,1012.12
2022-12-06T02:32:07.889Z,1012.12
2022-12-06T02:32:43.023Z,1012.12
2022-12-06T02:33:14.823Z,1012.02
2022-12-06T02:33:46.939Z,1012.02
2022-12-06T02:34:17.874Z,1012.12
2022-12-06T02:34:50.922Z,1012.12
2022-12-06T02:35:22.890Z,1012.02
2022-12-06T02:35:45.683Z,1011.92
2022-12-06T02:36:08.030Z,1011.92
2022-12-06T02:36:42.895Z,1011.92
2022-12-06T02:37:14.887Z,1011.82
2022-12-06T02:37:46.869Z,1011.82
2022-12-06T02:38:17.884Z,1011.82
2022-12-06T02:38:50.800Z,1011.82
2022-12-06T02:39:22.764Z,1012.12
2022-12-06T02:39:45.628Z,1012.12
2022-12-06T02:40:07.806Z,1012.12
2022-12-06T02:40:42.840Z,1012.12
2022-12-06T02:41:20.468Z,1011.92
2022-12-06T02:41:46.826Z,1011.92
2022-12-06T02:42:17.986Z,1011.92
2022-12-06T02:42:50.908Z,1011.92
2022-12-06T02:43:24.385Z,1012.12
2022-12-06T02:43:46.675Z,1012.02
2022-12-06T02:44:09.058Z,1012.02
2022-12-06T02:44:42.900Z,1012.02
2022-12-06T02:45:15.071Z,1012.02
2022-12-06T02:45:46.986Z,1012.02
2022-12-06T02:46:17.996Z,1012.02
2022-12-06T02:46:50.915Z,1012.02
2022-12-06T02:47:22.809Z,1011.92
2022-12-06T02:47:45.487Z,1011.92
2022-12-06T02:48:07.972Z,1011.92
2022-12-06T02:48:42.913Z,1011.92
2022-12-06T02:49:14.892Z,1011.92
2022-12-06T02:49:46.944Z,1011.92
2022-12-06T02:50:18.014Z,1012.12
2022-12-06T02:50:50.949Z,1012.12
2022-12-06T02:51:22.888Z,1012.22
2022-12-06T02:51:45.617Z,1012.12
2022-12-06T02:52:07.850Z,1012.12
2022-12-06T02:52:42.853Z,1012.12
2022-12-06T02:53:14.878Z,1012.02
2022-12-06T02:53:48.386Z,1012.02
2022-12-06T02:54:17.830Z,1012.02
2022-12-06T02:54:50.925Z,1012.02
2022-12-06T02:55:22.798Z,1012.02
2022-12-06T02:55:46.054Z,1011.82
2022-12-06T02:56:08.422Z,1011.82
2022-12-06T02:56:42.903Z,1011.82
2022-12-06T02:57:14.985Z,1012.12
2022-12-06T02:57:46.747Z,1012.12
2022-12-06T02:58:17.925Z,1011.92
2022-12-06T02:58:51.146Z,1011.92
2022-12-06T02:59:23.259Z,1011.82
2022-12-06T02:59:46.331Z,1011.92
2022-12-06T03:00:09.402Z,1011.92
2022-12-06T03:00:43.044Z,1011.92
2022-12-06T03:01:15.026Z,1011.82
2022-12-06T03:01:43.666Z,1011.82
2022-12-06T03:02:19.111Z,1011.92
2022-12-06T03:02:51.218Z,1011.92
2022-12-06T03:03:23.563Z,1011.82
2022-12-06T03:03:46.492Z,1011.61
2022-12-06T03:04:22.036Z,1011.61
2022-12-06T03:04:38.139Z,1011.61
2022-12-06T03:05:15.203Z,1012.02
2022-12-06T03:05:55.324Z,1012.02
2022-12-06T03:06:18.120Z,1011.92
2022-12-06T03:06:50.916Z,1011.92
2022-12-06T03:07:22.893Z,1011.92
2022-12-06T03:07:46.542Z,1011.92
2022-12-06T03:08:08.831Z,1011.92
2022-12-06T03:08:42.806Z,1011.92
2022-12-06T03:09:14.927Z,1012.02
2022-12-06T03:09:46.848Z,1012.02
2022-12-06T03:10:17.870Z,1011.92
2022-12-06T03:10:50.812Z,1011.92
2022-12-06T03:11:23.014Z,1011.92
2022-12-06T03:11:45.681Z,1012.02
2022-12-06T03:12:08.117Z,1012.02
2022-12-06T03:12:42.943Z,1012.02
2022-12-06T03:13:15.223Z,1012.02
2022-12-06T03:13:47.118Z,1012.02
2022-12-06T03:14:17.977Z,1011.82
2022-12-06T03:14:50.839Z,1011.82
2022-12-06T03:15:23.037Z,1012.02
2022-12-06T03:15:46.953Z,1011.82
2022-12-06T03:16:08.721Z,1011.82
2022-12-06T03:16:48.329Z,1011.82
2022-12-06T03:17:15.037Z,1012.02
2022-12-06T03:17:46.972Z,1012.02
2022-12-06T03:18:17.959Z,1011.82
2022-12-06T03:18:51.086Z,1011.82
2022-12-06T03:19:22.903Z,1011.82
2022-12-06T03:19:45.670Z,1012.02
2022-12-06T03:20:08.047Z,1012.02
2022-12-06T03:20:43.085Z,1012.02
2022-12-06T03:21:14.914Z,1011.92
2022-12-06T03:21:46.772Z,1011.92
2022-12-06T03:22:17.836Z,1011.72
2022-12-06T03:22:50.844Z,1011.72
2022-12-06T03:23:23.050Z,1011.82
2022-12-06T03:23:45.342Z,1012.02
2022-12-06T03:24:08.395Z,1012.02
2022-12-06T03:24:42.828Z,1012.02
2022-12-06T03:25:14.873Z,1011.92
2022-12-06T03:25:46.876Z,1011.92
2022-12-06T03:26:17.830Z,1011.82
2022-12-06T03:26:50.882Z,1011.82
2022-12-06T03:27:22.938Z,1011.92
2022-12-06T03:27:45.714Z,1011.92
2022-12-06T03:28:07.995Z,1011.92
2022-12-06T03:28:42.980Z,1011.92
2022-12-06T03:29:14.817Z,1011.82
2022-12-06T03:29:47.305Z,1011.82
2022-12-06T03:30:18.101Z,1011.82
2022-12-06T03:30:50.988Z,1011.82
2022-12-06T03:31:22.982Z,1011.92
2022-12-06T03:31:45.548Z,1011.82
2022-12-06T03:32:07.837Z,1011.82
2022-12-06T03:32:43.081Z,1011.82
2022-12-06T03:33:14.919Z,1011.82
2022-12-06T03:33:46.719Z,1011.82
2022-12-06T03:34:17.808Z,1012.02
2022-12-06T03:34:50.857Z,1012.02
2022-12-06T03:35:22.848Z,1012.22
2022-12-06T03:35:45.810Z,1012.02
2022-12-06T03:36:08.019Z,1012.02
2022-12-06T03:36:43.012Z,1012.02
2022-12-06T03:37:14.901Z,1012.02
2022-12-06T03:37:46.796Z,1012.02
2022-12-06T03:38:17.854Z,1011.92
2022-12-06T03:38:50.883Z,1011.92
2022-12-06T03:39:22.978Z,1012.22
2022-12-06T03:39:46.522Z,1011.92
2022-12-06T03:40:09.011Z,1011.92
2022-12-06T03:40:42.751Z,1011.92
2022-12-06T03:41:20.265Z,1012.02
2022-12-06T03:41:46.789Z,1012.02
2022-12-06T03:42:17.866Z,1012.02
2022-12-06T03:42:50.871Z,1012.02
2022-12-06T03:43:24.344Z,1012.02
2022-12-06T03:43:46.328Z,1012.02
2022-12-06T03:44:08.791Z,1012.02
2022-12-06T03:44:43.045Z,1012.02
2022-12-06T03:45:09.115Z,1012.02
2022-12-06T03:45:47.256Z,1012.02
2022-12-06T03:46:18.148Z,1011.82
2022-12-06T03:46:50.945Z,1011.82
2022-12-06T03:47:22.850Z,1012.02
2022-12-06T03:47:45.476Z,1011.92
2022-12-06T03:48:07.889Z,1011.92
2022-12-06T03:48:43.078Z,1011.92
2022-12-06T03:49:14.890Z,1011.92
2022-12-06T03:49:46.939Z,1011.92
2022-12-06T03:50:18.052Z,1012.12
2022-12-06T03:50:56.922Z,1012.12
2022-12-06T03:51:23.396Z,1012.02
2022-12-06T03:51:46.258Z,1012.02
2022-12-06T03:52:08.759Z,1012.02
2022-12-06T03:52:42.959Z,1012.02
2022-12-06T03:53:19.019Z,1012.12
2022-12-06T03:53:41.571Z,1012.12
2022-12-06T03:54:18.164Z,1012.02
2022-12-06T03:54:51.011Z,1012.02
2022-12-06T03:55:22.942Z,1012.02
2022-12-06T03:55:46.197Z,1012.02
2022-12-06T03:56:08.541Z,1012.02
2022-12-06T03:56:43.095Z,1012.02
2022-12-06T03:57:15.018Z,1011.92
2022-12-06T03:57:46.891Z,1011.92
2022-12-06T03:58:17.909Z,1011.92
2022-12-06T03:58:51.006Z,1011.92
2022-12-06T03:59:22.880Z,1011.72
2022-12-06T03:59:45.556Z,1012.02
2022-12-06T04:00:08.143Z,1012.02
2022-12-06T04:00:43.042Z,1012.02
2022-12-06T04:01:15.141Z,1011.92
2022-12-06T04:01:47.377Z,1011.92
2022-12-06T04:02:18.113Z,1012.02
2022-12-06T04:02:52.395Z,1012.02
2022-12-06T04:03:23.323Z,1011.92
2022-12-06T04:03:45.808Z,1011.92
2022-12-06T04:04:08.283Z,1011.92
2022-12-06T04:04:38.615Z,1011.92
2022-12-06T04:05:16.634Z,1011.92
2022-12-06T04:05:47.351Z,1011.92
2022-12-06T04:06:19.676Z,1011.82
2022-12-06T04:06:52.670Z,1011.92
2022-12-06T04:07:24.487Z,1011.92
2022-12-06T04:07:47.221Z,1012.02
2022-12-06T04:08:08.213Z,1012.02
2022-12-06T04:08:43.868Z,1012.02
2022-12-06T04:09:14.892Z,1012.02
2022-12-06T04:09:46.857Z,1012.02
2022-12-06T04:10:18.059Z,1011.92
2022-12-06T04:10:50.894Z,1011.92
2022-12-06T04:11:23.014Z,1012.02
2022-12-06T04:11:45.725Z,1011.82
2022-12-06T04:12:08.330Z,1011.82
2022-12-06T04:12:43.015Z,1011.82
2022-12-06T04:13:19.457Z,1011.92
2022-12-06T04:13:46.883Z,1011.92
2022-12-06T04:14:18.461Z,1011.92
2022-12-06T04:14:50.895Z,1011.92
2022-12-06T04:15:23.061Z,1011.92
2022-12-06T04:15:46.025Z,1011.92
2022-12-06T04:16:08.194Z,1011.92
2022-12-06T04:16:43.219Z,1011.92
2022-12-06T04:17:15.326Z,1012.02
2022-12-06T04:17:47.032Z,1012.02
2022-12-06T04:18:18.344Z,1011.92
2022-12-06T04:18:51.110Z,1011.92
2022-12-06T04:19:23.766Z,1012.02
2022-12-06T04:19:50.688Z,1012.12
2022-12-06T04:20:09.295Z,1012.12
2022-12-06T04:20:43.030Z,1012.12
2022-12-06T04:21:20.754Z,1011.92
2022-12-06T04:21:46.913Z,1011.92
2022-12-06T04:22:18.364Z,1011.92
2022-12-06T04:22:50.844Z,1011.92
2022-12-06T04:23:23.035Z,1011.82
2022-12-06T04:23:45.824Z,1011.82
2022-12-06T04:24:08.144Z,1011.82
2022-12-06T04:24:43.917Z,1011.82
2022-12-06T04:25:14.916Z,1011.82
2022-12-06T04:25:47.088Z,1011.82
2022-12-06T04:26:17.964Z,1011.82
2022-12-06T04:26:50.866Z,1011.82
2022-12-06T04:27:22.832Z,1011.72
2022-12-06T04:27:45.621Z,1011.72
2022-12-06T04:28:08.150Z,1011.72
2022-12-06T04:28:42.802Z,1011.72
2022-12-06T04:29:15.060Z,1011.92
2022-12-06T04:29:46.801Z,1011.92
2022-12-06T04:30:18.145Z,1011.82
2022-12-06T04:30:55.119Z,1011.82
2022-12-06T04:31:22.965Z,1011.82
2022-12-06T04:31:45.657Z,1011.82
2022-12-06T04:32:08.127Z,1011.82
2022-12-06T04:32:43.071Z,1011.82
2022-12-06T04:33:14.753Z,1011.92
2022-12-06T04:33:46.930Z,1011.92
2022-12-06T04:34:18.042Z,1011.72
2022-12-06T04:34:50.909Z,1011.72
2022-12-06T04:35:22.834Z,1011.72
2022-12-06T04:35:46.015Z,1011.82
2022-12-06T04:36:09.101Z,1011.82
2022-12-06T04:36:44.033Z,1011.82
2022-12-06T04:37:14.873Z,1011.82
2022-12-06T04:37:46.813Z,1011.82
2022-12-06T04:38:18.314Z,1011.72
2022-12-06T04:38:50.750Z,1011.72
2022-12-06T04:39:23.562Z,1011.72
2022-12-06T04:39:46.462Z,1011.61
2022-12-06T04:40:09.035Z,1011.61
2022-12-06T04:40:43.589Z,1011.61
2022-12-06T04:41:14.994Z,1011.72
2022-12-06T04:41:47.271Z,1011.72
2022-12-06T04:42:18.252Z,1011.72
2022-12-06T04:42:51.114Z,1011.72
2022-12-06T04:43:24.330Z,1011.82
2022-12-06T04:43:47.415Z,1011.72
2022-12-06T04:44:16.159Z,1011.72
2022-12-06T04:44:38.517Z,1011.72
2022-12-06T04:45:15.048Z,1011.82
2022-12-06T04:45:46.897Z,1011.82
2022-12-06T04:46:17.988Z,1011.72
2022-12-06T04:46:50.962Z,1011.72
2022-12-06T04:47:23.245Z,1011.82
2022-12-06T04:47:46.239Z,1011.51
2022-12-06T04:48:08.482Z,1011.51
2022-12-06T04:48:43.171Z,1011.51
2022-12-06T04:49:14.891Z,1011.82
2022-12-06T04:49:46.913Z,1011.82
2022-12-06T04:50:18.419Z,1011.82
2022-12-06T04:50:50.929Z,1011.82
2022-12-06T04:51:22.970Z,1011.92
2022-12-06T04:51:45.689Z,1011.92
2022-12-06T04:52:08.125Z,1011.92
2022-12-06T04:52:43.142Z,1011.92
2022-12-06T04:53:15.262Z,1011.72
2022-12-06T04:53:47.073Z,1011.72
2022-12-06T04:54:18.270Z,1011.82
2022-12-06T04:54:50.872Z,1011.82
2022-12-06T04:55:26.481Z,1011.92
2022-12-06T04:55:46.206Z,1011.82
2022-12-06T04:56:08.615Z,1011.82
2022-12-06T04:56:43.133Z,1011.82
2022-12-06T04:57:10.168Z,1011.61
2022-12-06T04:57:48.486Z,1012.02
2022-12-06T04:58:18.348Z,1012.02
2022-12-06T04:58:51.174Z,1012.02
2022-12-06T04:59:23.298Z,1011.92
2022-12-06T04:59:45.970Z,1011.72
2022-12-06T05:00:08.489Z,1011.72
2022-12-06T05:00:43.802Z,1011.72
2022-12-06T05:01:15.030Z,1011.82
2022-12-06T05:01:47.250Z,1011.82
2022-12-06T05:02:18.082Z,1011.82
2022-12-06T05:02:51.203Z,1011.82
2022-12-06T05:03:23.570Z,1011.61
2022-12-06T05:03:46.383Z,1011.82
2022-12-06T05:04:08.659Z,1011.82
2022-12-06T05:04:48.606Z,1011.82
2022-12-06T05:05:16.412Z,1011.82
2022-12-06T05:05:47.447Z,1011.82
2022-12-06T05:06:18.922Z,1011.72
2022-12-06T05:06:59.003Z,1011.72
2022-12-06T05:07:23.165Z,1011.72
2022-12-06T05:07:45.744Z,1011.72
2022-12-06T05:08:08.793Z,1011.72
2022-12-06T05:08:43.785Z,1011.72
2022-12-06T05:09:15.264Z,1011.72
2022-12-06T05:09:47.250Z,1011.72
2022-12-06T05:10:18.147Z,1011.72
2022-12-06T05:10:53.067Z,1011.51
2022-12-06T05:11:22.795Z,1011.51
2022-12-06T05:11:45.309Z,1011.51
2022-12-06T05:12:07.836Z,1011.51
2022-12-06T05:12:43.016Z,1011.51
2022-12-06T05:13:14.988Z,1011.72
2022-12-06T05:13:47.847Z,1011.72
2022-12-06T05:14:18.502Z,1011.61
2022-12-06T05:14:51.695Z,1011.61
2022-12-06T05:15:26.657Z,1011.61
2022-12-06T05:15:46.001Z,1011.61
2022-12-06T05:16:08.244Z,1011.61
2022-12-06T05:16:46.176Z,1011.51
2022-12-06T05:17:15.134Z,1011.51
2022-12-06T05:17:47.795Z,1011.51
2022-12-06T05:18:17.980Z,1011.51
2022-12-06T05:18:51.122Z,1011.51
2022-12-06T05:19:22.904Z,1011.72
2022-12-06T05:19:45.588Z,1011.51
2022-12-06T05:20:08.554Z,1011.51
2022-12-06T05:20:43.351Z,1011.51
2022-12-06T05:21:15.620Z,1011.41
2022-12-06T05:21:46.922Z,1011.41
2022-12-06T05:22:18.062Z,1011.72
2022-12-06T05:22:50.767Z,1011.72
2022-12-06T05:23:23.026Z,1011.72
2022-12-06T05:23:45.967Z,1011.72
2022-12-06T05:24:08.530Z,1011.72
2022-12-06T05:24:43.033Z,1011.72
2022-12-06T05:25:15.155Z,1011.61
2022-12-06T05:25:47.084Z,1011.61
2022-12-06T05:26:18.117Z,1011.61
2022-12-06T05:26:50.872Z,1011.61
2022-12-06T05:27:22.906Z,1011.41
2022-12-06T05:27:45.567Z,1011.51
2022-12-06T05:28:07.994Z,1011.51
2022-12-06T05:28:42.821Z,1011.51
2022-12-06T05:29:15.067Z,1011.61
2022-12-06T05:29:46.893Z,1011.61
2022-12-06T05:30:18.669Z,1011.72
2022-12-06T05:30:51.864Z,1011.72
2022-12-06T05:31:23.793Z,1011.51
2022-12-06T05:31:46.603Z,1011.72
2022-12-06T05:32:09.007Z,1011.72
2022-12-06T05:32:43.032Z,1011.72
2022-12-06T05:33:14.766Z,1011.41
2022-12-06T05:33:47.057Z,1011.41
2022-12-06T05:34:18.170Z,1011.61
2022-12-06T05:34:50.912Z,1011.61
2022-12-06T05:35:22.987Z,1011.61
2022-12-06T05:35:45.573Z,1011.41
2022-12-06T05:36:08.760Z,1011.41
2022-12-06T05:36:44.591Z,1011.41
2022-12-06T05:37:14.907Z,1011.41
2022-12-06T05:37:46.955Z,1011.41
2022-12-06T05:38:18.995Z,1011.41
2022-12-06T05:38:51.944Z,1011.41
2022-12-06T05:39:24.067Z,1011.41
2022-12-06T05:39:46.636Z,1011.72
2022-12-06T05:40:09.143Z,1011.72
2022-12-06T05:40:43.749Z,1011.72
2022-12-06T05:41:14.829Z,1011.51
2022-12-06T05:41:47.186Z,1011.51
2022-12-06T05:42:22.473Z,1011.61
2022-12-06T05:42:50.964Z,1011.61
2022-12-06T05:43:22.941Z,1011.41
2022-12-06T05:43:45.619Z,1011.41
2022-12-06T05:44:08.176Z,1011.41
2022-12-06T05:44:42.955Z,1011.41
2022-12-06T05:45:15.268Z,1011.51
2022-12-06T05:45:46.963Z,1011.51
2022-12-06T05:46:18.988Z,1011.51
2022-12-06T05:46:51.892Z,1011.51
2022-12-06T05:47:23.116Z,1011.41
2022-12-06T05:47:45.887Z,1011.51
2022-12-06T05:48:08.389Z,1011.51
2022-12-06T05:48:42.850Z,1011.51
2022-12-06T05:49:14.762Z,1011.51
2022-12-06T05:49:46.890Z,1011.51
2022-12-06T05:50:18.226Z,1011.51
2022-12-06T05:50:51.328Z,1011.51
2022-12-06T05:51:22.815Z,1011.41
2022-12-06T05:51:45.572Z,1011.51
2022-12-06T05:52:08.580Z,1011.51
2022-12-06T05:52:43.032Z,1011.51
2022-12-06T05:53:14.973Z,1011.41
2022-12-06T05:53:47.211Z,1011.41
2022-12-06T05:54:18.611Z,1011.41
2022-12-06T05:54:51.206Z,1011.41
2022-12-06T05:55:23.773Z,1011.61
2022-12-06T05:55:46.497Z,1011.31
2022-12-06T05:56:09.298Z,1011.31
2022-12-06T05:56:44.569Z,1011.31
2022-12-06T05:57:16.877Z,1011.31
2022-12-06T05:57:47.688Z,1011.31
2022-12-06T05:58:18.075Z,1011.51
2022-12-06T05:58:51.907Z,1011.51
2022-12-06T05:59:23.573Z,1011.31
2022-12-06T05:59:46.370Z,1011.51
2022-12-06T06:00:09.083Z,1011.51
2022-12-06T06:00:42.878Z,1011.51
2022-12-06T06:01:15.132Z,1011.31
2022-12-06T06:01:47.005Z,1011.31
2022-12-06T06:02:18.913Z,1011.51
2022-12-06T06:02:51.103Z,1011.51
2022-12-06T06:03:23.848Z,1011.31